Matamoros, Mexico

4:46 PM EST on February 13, 2016 (GMT -0500)
Brownsville-South Padre I International | | Change Station
CLOSE
Current Station
Airport
Location: Brownsville,
Elevation: 20 ft
Nearby Weather Stations

Elev 20 ft 25.91 °N, 97.42 °W | Updated 53 minutes ago

Mostly Cloudy
Mostly Cloudy
75 °F
Feels Like 75 °F
N
12
Wind Variable Wind from SE
Gusts 21 mph

Today
High -- | Low -- °F
--% Chance of Precip.
Yesterday
High -- | Low -- °F
Precip. -- in
Pressure 30.23 in
Visibility 10.0 miles
Clouds Mostly Cloudy 4100 ft
Dew Point 56 °F
Humidity 51%
Rainfall 0.00 in
Snow Depth Not available.
8:07 AM 7:21 PM
Waxing Crescent, 34% visible
METAR KBRO 132053Z 13010G18KT 10SM BKN041 24/13 A3023 RMK AO2 SLP235 T02390133 58028
Pressure 30.23 in
Visibility 10.0 miles
Clouds Mostly Cloudy 4100 ft
Dew Point 56 °F
Humidity 51%
Rainfall 0.00 in
Snow Depth Not available.
8:07 AM 7:21 PM
Waxing Crescent, 34% visible
METAR KBRO 132053Z 13010G18KT 10SM BKN041 24/13 A3023 RMK AO2 SLP235 T02390133 58028

10-Day Weather Forecast

Almanac

Astronomy

Feb. 13, 2016 Rise Set
Actual Time
Civil Twilight
Nautical Twilight
Astronomical Twilight
Moon
Length of Visible Light
Length of Day
Tomorrow will be .
, % of the Moon is Illuminated

Today's Extremes

Country Highs Country Lows

Community

WunderPhotos

Upload Photos

1,892,682 photos uploaded!

WunderBlog® & News

Nearby

Air Quality

  Air Quality AQ Index Pollutant
Not available.

Snow Depth

Station Depth Elevation

Earthquake Activity

City Distance Mag. Time & Date
Minimum magnitude displayed is 2.5.

Coastal Water Temperatures

Place Temperature

Stations

Nearby Weather Stations

Station Location Temp. Windchill Dew Point Humidity Wind Precip. Elev Updated Type